Time;durP1;ratioP1;P1;durP2;ratioP2;P2;SDS_P1;SDS_P2;PMS_P1;PMS_P2;Temp;Humidity;BMP_temperature;BMP_pressure;BME280_temperature;BME280_humidity;BME280_pressure;Samples;Min_cycle;Max_cycle;Signal;HPM_P1;HPM_P2
2021/09/08 00:01:22;;;;;;;;;;;;;;;-144.99;86.70;52260.56;5086976;28;19949;-74
2021/09/08 00:03:50;;;;;;;;;;;;;;;-144.99;86.58;52236.13;5087542;28;20012;-74
2021/09/08 00:06:16;;;;;;;;;;;;;;;-144.99;86.88;52227.97;5079612;28;20481;-74
2021/09/08 00:08:43;;;;;;;;;;;;;;;-144.99;87.15;52252.44;5072186;28;19975;-74
2021/09/08 00:11:09;;;;;;;;;;;;;;;-144.99;87.63;52250.38;5082974;28;20363;-74
2021/09/08 00:13:35;;;;;;;;;;;;;;;-144.99;87.53;52301.34;5086818;28;19960;-73
2021/09/08 00:16:02;;;;;;;;;;;;;;;-144.99;87.78;52254.47;5087280;28;19934;-73
2021/09/08 00:18:28;;;;;;;;;;;;;;;-144.99;87.94;52285.03;5086796;28;19996;-73
2021/09/08 00:20:56;;;;;;;;;;;;;;;-144.99;88.07;52246.31;5086043;28;19955;-73
2021/09/08 00:23:22;;;;;;;;;;;;;;;-144.99;87.74;52232.03;5083477;28;20370;-73
2021/09/08 00:25:49;;;;;;;;;;;;;;;-144.99;87.48;52240.19;5087512;28;20007;-73
2021/09/08 00:28:15;;;;;;;;;;;;;;;-144.99;87.33;52272.81;5083720;28;20385;-74
2021/09/08 00:30:41;;;;;;;;;;;;;;;-144.99;87.33;52227.97;5084784;28;20138;-74
2021/09/08 00:33:07;;;;;;;;;;;;;;;-144.99;87.16;52280.97;5084584;28;19924;-74
2021/09/08 00:35:34;;;;;;;;;;;;;;;-144.99;87.11;52248.34;5077905;28;19957;-74
2021/09/08 00:38:01;;;;;;;;;;;;;;;-144.99;87.16;52280.97;5084157;28;19971;-73
2021/09/08 00:40:28;;;;;;;;;;;;;;;-144.99;87.02;52280.97;5084748;28;20318;-74
2021/09/08 00:42:54;;;;;;;;;;;;;;;-144.99;87.42;52264.66;5085452;28;19953;-73
2021/09/08 00:45:20;;;;;;;;;;;;;;;-144.99;87.25;52285.03;5086526;28;19975;-73
2021/09/08 00:47:48;;;;;;;;;;;;;;;-144.99;87.31;52280.97;5086833;28;19969;-74
2021/09/08 00:50:14;;;;;;;;;;;;;;;-144.99;87.33;52244.28;5086920;28;20034;-74
2021/09/08 00:52:41;;;;;;;;;;;;;;;-144.99;87.44;52280.97;5083456;28;19947;-77
2021/09/08 00:55:09;;;;;;;;;;;;;;;-144.99;87.14;52272.81;5086230;28;19968;-77
2021/09/08 00:57:36;;;;;;;;;;;;;;;-144.99;87.21;52280.97;5085330;28;19953;-76
2021/09/08 01:00:02;;;;;;;;;;;;;;;-144.99;87.35;52270.78;5087179;28;19965;-74
2021/09/08 01:02:29;;;;;;;;;;;;;;;-144.99;87.35;52215.75;5085557;28;20357;-74
2021/09/08 01:04:55;;;;;;;;;;;;;;;-144.99;87.29;52217.78;5087152;28;19952;-77
2021/09/08 01:07:21;;;;;;;;;;;;;;;-144.99;87.39;52270.78;5080592;28;19970;-76
2021/09/08 01:09:49;;;;;;;;;;;;;;;-144.99;87.79;52293.19;5072043;28;19944;-74
2021/09/08 01:12:17;;;;;;;;;;;;;;;-144.99;87.74;52268.72;5084242;28;19969;-77
2021/09/08 01:14:43;;;;;;;;;;;;;;;-144.99;87.90;52268.72;5087830;28;19928;-75
2021/09/08 01:17:10;;;;;;;;;;;;;;;-144.99;87.89;52268.72;5086640;28;20449;-76
2021/09/08 01:19:37;;;;;;;;;;;;;;;-144.99;87.80;52280.97;5086479;28;20317;-75
2021/09/08 01:22:03;;;;;;;;;;;;;;;-144.99;87.89;52266.69;5084426;28;19945;-73
2021/09/08 01:24:31;;;;;;;;;;;;;;;-144.99;88.15;52252.44;5087149;28;19969;-77
2021/09/08 01:26:58;;;;;;;;;;;;;;;-144.99;88.08;52232.03;5086200;28;19964;-77
2021/09/08 01:29:24;;;;;;;;;;;;;;;-144.99;88.27;52256.50;5080871;28;19991;-75
2021/09/08 01:31:55;;;;;;;;;;;;;;;-144.99;88.75;52289.13;5086927;28;19959;-76
2021/09/08 01:34:21;;;;;;;;;;;;;;;-144.99;88.79;52264.66;5084885;28;19966;-75
2021/09/08 01:36:47;;;;;;;;;;;;;;;-144.99;88.99;52285.03;5077246;28;20377;-77
2021/09/08 01:39:18;;;;;;;;;;;;;;;-144.99;88.86;52280.97;5082594;28;19950;-75
2021/09/08 01:41:46;;;;;;;;;;;;;;;-144.99;89.27;52301.34;5085434;28;19956;-76
2021/09/08 01:44:16;;;;;;;;;;;;;;;-144.99;89.21;52236.13;5085244;28;20397;-76
2021/09/08 01:46:43;;;;;;;;;;;;;;;-144.99;89.44;52297.25;5083893;28;20068;-75
2021/09/08 01:49:09;;;;;;;;;;;;;;;-144.99;89.18;52244.28;5084258;28;20368;-75
2021/09/08 01:51:35;;;;;;;;;;;;;;;-144.99;89.44;52272.81;5083769;28;19981;-75
2021/09/08 01:54:02;;;;;;;;;;;;;;;-144.99;89.37;52289.13;5082480;28;19928;-74
2021/09/08 01:56:28;;;;;;;;;;;;;;;-144.99;89.44;52303.38;5085744;28;19928;-75
2021/09/08 01:58:55;;;;;;;;;;;;;;;-144.99;89.53;52280.97;5083864;28;19979;-74
2021/09/08 02:01:25;;;;;;;;;;;;;;;-144.99;89.13;52272.81;5083336;28;19971;-75
2021/09/08 02:03:51;;;;;;;;;;;;;;;-144.99;89.50;52295.22;5089042;28;19952;-75
2021/09/08 02:06:18;;;;;;;;;;;;;;;-144.99;89.82;52264.66;5087629;28;19961;-76
2021/09/08 02:08:45;;;;;;;;;;;;;;;-144.99;90.00;52264.66;5089052;28;19940;-76
2021/09/08 02:11:11;;;;;;;;;;;;;;;-144.99;90.16;52280.97;5089143;28;19974;-76
2021/09/08 02:13:37;;;;;;;;;;;;;;;-144.99;90.20;52264.66;5086133;28;19945;-79
2021/09/08 02:16:05;;;;;;;;;;;;;;;-144.99;90.38;52260.56;5093295;28;20729;-77
2021/09/08 02:18:31;;;;;;;;;;;;;;;-144.99;90.28;52285.03;5094231;28;19931;-79
2021/09/08 02:20:58;;;;;;;;;;;;;;;-144.99;90.65;52299.31;5094171;28;19928;-80
2021/09/08 02:23:24;;;;;;;;;;;;;;;-144.99;91.16;52264.66;5083803;28;19978;-81
2021/09/08 02:25:50;;;;;;;;;;;;;;;-144.99;91.70;52297.25;5096928;28;19973;-79
2021/09/08 02:28:20;;;;;;;;;;;;;;;-144.99;92.08;52276.88;5094377;28;19924;-80
2021/09/08 02:30:46;;;;;;;;;;;;;;;-144.99;92.31;52260.56;5095288;28;19998;-80
2021/09/08 02:33:14;;;;;;;;;;;;;;;-144.99;92.25;52297.25;5090368;28;19955;-81
2021/09/08 02:35:40;;;;;;;;;;;;;;;-144.99;92.43;52305.41;5096640;28;19968;-81
2021/09/08 02:38:07;;;;;;;;;;;;;;;-144.99;92.88;52321.72;5108696;28;19940;-80
2021/09/08 02:40:33;;;;;;;;;;;;;;;-144.99;93.10;52280.97;5112368;28;20439;-81
2021/09/08 02:42:59;;;;;;;;;;;;;;;-144.99;93.25;52293.19;5091676;28;19951;-80
2021/09/08 02:45:26;;;;;;;;;;;;;;;-144.99;93.50;52280.97;5093403;28;19924;-81
2021/09/08 02:47:52;;;;;;;;;;;;;;;-144.99;93.15;52280.97;5094509;28;19931;-81
2021/09/08 02:50:20;;;;;;;;;;;;;;;-144.99;92.96;52285.03;5092722;28;19931;-80
2021/09/08 02:52:46;;;;;;;;;;;;;;;-144.99;93.03;52305.41;5087380;28;19945;-78
2021/09/08 02:55:12;;;;;;;;;;;;;;;-144.99;93.02;52280.97;5093484;28;19924;-76
2021/09/08 02:57:39;;;;;;;;;;;;;;;-144.99;93.03;52301.34;5088276;28;19924;-79
2021/09/08 03:00:07;;;;;;;;;;;;;;;-144.99;92.94;52289.13;5092172;28;19931;-79
2021/09/08 03:02:34;;;;;;;;;;;;;;;-144.99;92.91;52276.88;5088916;28;19989;-76
2021/09/08 03:05:02;;;;;;;;;;;;;;;-144.99;92.98;52307.47;5083609;28;20410;-77
2021/09/08 03:07:29;;;;;;;;;;;;;;;-144.99;93.07;52260.56;5086654;28;20371;-77
2021/09/08 03:09:56;;;;;;;;;;;;;;;-144.99;92.71;52301.34;5087500;28;19959;-77
2021/09/08 03:12:22;;;;;;;;;;;;;;;-144.99;92.77;52268.72;5089270;28;20375;-75
2021/09/08 03:14:48;;;;;;;;;;;;;;;-144.99;92.70;52280.97;5088258;28;20401;-75
2021/09/08 03:17:15;;;;;;;;;;;;;;;-144.99;92.33;52301.34;5088803;28;20321;-75
2021/09/08 03:19:41;;;;;;;;;;;;;;;-144.99;92.27;52232.03;5087264;28;20040;-75
2021/09/08 03:22:08;;;;;;;;;;;;;;;-144.99;92.37;52293.19;5086666;28;20397;-77
2021/09/08 03:24:35;;;;;;;;;;;;;;;-144.99;92.27;52266.69;5089401;28;19943;-77
2021/09/08 03:27:02;;;;;;;;;;;;;;;-144.99;92.42;52301.34;5089194;28;19928;-77
2021/09/08 03:29:28;;;;;;;;;;;;;;;-144.99;92.48;52287.06;5087440;28;19929;-77
2021/09/08 03:31:54;;;;;;;;;;;;;;;-144.99;92.54;52240.19;5088462;28;19924;-77
2021/09/08 03:34:21;;;;;;;;;;;;;;;-144.99;92.63;52276.88;5087537;28;19931;-77
2021/09/08 03:36:47;;;;;;;;;;;;;;;-144.99;92.46;52285.03;5080447;28;20468;-76
2021/09/08 03:39:13;;;;;;;;;;;;;;;-144.99;92.52;52264.66;5075811;28;19959;-76
2021/09/08 03:41:41;;;;;;;;;;;;;;;-144.99;92.17;52289.13;5086414;28;19950;-75
2021/09/08 03:44:07;;;;;;;;;;;;;;;-144.99;91.98;52280.97;5089039;28;19928;-75
2021/09/08 03:46:33;;;;;;;;;;;;;;;-144.99;91.99;52311.53;5088045;28;20355;-76
2021/09/08 03:49:00;;;;;;;;;;;;;;;-144.99;91.93;52293.19;5087416;28;20070;-77
2021/09/08 03:51:26;;;;;;;;;;;;;;;-144.99;91.88;52293.19;5085450;28;20418;-77
2021/09/08 03:53:52;;;;;;;;;;;;;;;-144.99;91.84;52299.31;5088690;28;19924;-77
2021/09/08 03:56:19;;;;;;;;;;;;;;;-144.99;91.88;52276.88;5086197;28;19964;-76
2021/09/08 03:58:46;;;;;;;;;;;;;;;-144.99;91.98;52250.38;5087717;28;19958;-76
2021/09/08 04:01:12;;;;;;;;;;;;;;;-144.99;92.02;52260.56;5084757;28;19924;-76
2021/09/08 04:03:39;;;;;;;;;;;;;;;-144.99;92.02;52313.56;5090485;28;19924;-78
2021/09/08 04:06:05;;;;;;;;;;;;;;;-144.99;92.12;52311.53;5081994;28;19928;-76
2021/09/08 04:08:31;;;;;;;;;;;;;;;-144.99;92.05;52289.13;5087601;28;19948;-78
2021/09/08 04:10:58;;;;;;;;;;;;;;;-144.99;92.17;52225.94;5088605;28;20273;-78
2021/09/08 04:13:24;;;;;;;;;;;;;;;-144.99;92.44;52262.63;5089060;28;19924;-78
2021/09/08 04:15:51;;;;;;;;;;;;;;;-144.99;92.04;52305.41;5088129;28;19962;-75
2021/09/08 04:18:18;;;;;;;;;;;;;;;-144.99;92.07;52236.13;5087299;28;20159;-75
2021/09/08 04:20:44;;;;;;;;;;;;;;;-144.99;92.00;52285.03;5087370;28;20424;-75
2021/09/08 04:23:10;;;;;;;;;;;;;;;-144.99;92.50;52268.72;5083591;28;19924;-75
2021/09/08 04:25:37;;;;;;;;;;;;;;;-144.99;92.86;52285.03;5088391;28;20309;-73
2021/09/08 04:28:03;;;;;;;;;;;;;;;-144.99;93.21;52276.88;5076613;28;19932;-75
2021/09/08 04:30:29;;;;;;;;;;;;;;;-144.99;93.02;52280.97;5085954;28;19931;-75
2021/09/08 04:32:57;;;;;;;;;;;;;;;-144.99;93.13;52287.06;5085668;28;20350;-75
2021/09/08 04:35:23;;;;;;;;;;;;;;;-144.99;93.05;52305.41;5087892;28;19931;-75
2021/09/08 04:37:50;;;;;;;;;;;;;;;-144.99;93.14;52266.69;5082222;28;19931;-74
2021/09/08 04:40:16;;;;;;;;;;;;;;;-144.99;93.15;52280.97;5085434;28;19958;-74
2021/09/08 04:42:43;;;;;;;;;;;;;;;-144.99;93.35;52278.91;5086040;28;19966;-75
2021/09/08 04:45:09;;;;;;;;;;;;;;;-144.99;94.17;52248.34;5087965;28;19980;-76
2021/09/08 04:47:35;;;;;;;;;;;;;;;-144.99;94.67;52264.66;5083436;28;20312;-75
2021/09/08 04:50:03;;;;;;;;;;;;;;;-144.99;94.99;52244.28;5086594;28;20420;-74
2021/09/08 04:52:32;;;;;;;;;;;;;;;-144.99;94.54;52244.28;5084788;28;19945;-74
2021/09/08 04:54:58;;;;;;;;;;;;;;;-144.99;94.59;52276.88;5087218;28;19975;-77
2021/09/08 04:57:25;;;;;;;;;;;;;;;-144.99;94.48;52268.72;5086078;28;20448;-74
2021/09/08 04:59:51;;;;;;;;;;;;;;;-144.99;94.17;52285.03;5083242;28;19942;-74
2021/09/08 05:02:17;;;;;;;;;;;;;;;-144.99;93.59;52280.97;4032420;28;10021268;-75
2021/09/08 05:04:43;;;;;;;;;;;;;;;-144.99;93.24;52262.63;5071721;28;19955;-71
2021/09/08 05:07:11;;;;;;;;;;;;;;;-144.99;92.59;52283.00;5078279;28;20067;-71
2021/09/08 05:09:37;;;;;;;;;;;;;;;-144.99;92.44;52252.44;5073879;28;19985;-72
2021/09/08 05:12:04;;;;;;;;;;;;;;;-144.99;92.07;52260.56;5083710;28;19962;-71
2021/09/08 05:14:30;;;;;;;;;;;;;;;-144.99;91.84;52244.28;5082287;28;19945;-72
2021/09/08 05:16:57;;;;;;;;;;;;;;;-144.99;91.58;52285.03;5069764;28;19968;-72
2021/09/08 05:19:23;;;;;;;;;;;;;;;-144.99;91.39;52321.72;5082582;28;20410;-73
2021/09/08 05:21:49;;;;;;;;;;;;;;;-144.99;91.39;52291.16;5076271;28;19967;-73
2021/09/08 05:24:17;;;;;;;;;;;;;;;-144.99;91.30;52293.19;5082406;28;20377;-72
2021/09/08 05:26:43;;;;;;;;;;;;;;;-144.99;91.01;52285.03;5083112;28;20436;-73
2021/09/08 05:29:09;;;;;;;;;;;;;;;-144.99;90.75;52276.88;5088757;22;19966;-73
2021/09/08 05:31:36;;;;;;;;;;;;;;;-144.99;90.67;52252.44;5061884;28;20481;-77
2021/09/08 05:34:02;;;;;;;;;;;;;;;-144.99;90.40;52278.91;5074875;28;20419;-75
2021/09/08 05:36:28;;;;;;;;;;;;;;;-144.99;90.32;52289.13;5066909;28;20336;-76
2021/09/08 05:38:55;;;;;;;;;;;;;;;-144.99;90.13;52283.00;5084174;28;20009;-73
2021/09/08 05:41:22;;;;;;;;;;;;;;;-144.99;89.79;52297.25;5096001;28;19932;-77
2021/09/08 05:43:48;;;;;;;;;;;;;;;-144.99;89.65;52276.88;5088123;28;20419;-76
2021/09/08 05:46:15;;;;;;;;;;;;;;;-144.99;89.45;52246.31;5098078;28;20027;-75
2021/09/08 05:48:46;;;;;;;;;;;;;;;-144.99;89.20;52223.88;5095879;28;19966;-76
2021/09/08 05:51:12;;;;;;;;;;;;;;;-144.99;88.93;52264.66;5079805;27;20418;-74
2021/09/08 05:53:39;;;;;;;;;;;;;;;-144.99;88.67;52289.13;5101678;28;19939;-76
2021/09/08 05:56:05;;;;;;;;;;;;;;;-144.99;88.42;52285.03;5087220;28;19964;-78
2021/09/08 05:58:33;;;;;;;;;;;;;;;-144.99;88.08;52264.66;5102484;28;19965;-75
2021/09/08 06:00:59;;;;;;;;;;;;;;;-144.99;87.65;52252.44;5087077;28;19973;-76
2021/09/08 06:03:25;;;;;;;;;;;;;;;-144.99;87.52;52285.03;5081578;28;20273;-76
2021/09/08 06:05:52;;;;;;;;;;;;;;;-144.99;87.02;52211.66;5083465;28;20462;-75
2021/09/08 06:08:18;;;;;;;;;;;;;;;-144.99;86.61;52260.56;5103133;28;19958;-77
2021/09/08 06:10:44;;;;;;;;;;;;;;;-144.99;86.39;52232.03;5091650;28;20033;-75
2021/09/08 06:13:11;;;;;;;;;;;;;;;-144.99;86.13;52256.50;5093006;28;19970;-76
2021/09/08 06:15:39;;;;;;;;;;;;;;;-144.99;85.64;52272.81;5096146;28;19945;-76
2021/09/08 06:18:06;;;;;;;;;;;;;;;-144.99;85.39;52240.19;5080924;28;19964;-73
2021/09/08 06:20:33;;;;;;;;;;;;;;;-144.99;85.03;52244.28;5102719;28;19954;-78
2021/09/08 06:22:59;;;;;;;;;;;;;;;-144.99;85.07;52232.03;5093504;28;20000;-75
2021/09/08 06:25:25;;;;;;;;;;;;;;;-144.99;84.77;52244.28;5098169;28;20068;-76
2021/09/08 06:27:51;;;;;;;;;;;;;;;-144.99;84.10;52264.66;5095586;28;20414;-78
2021/09/08 06:30:18;;;;;;;;;;;;;;;-144.99;83.40;52242.22;5094557;28;19968;-74
2021/09/08 06:32:45;;;;;;;;;;;;;;;-144.99;83.46;52260.56;5095192;28;20603;-77
2021/09/08 06:35:12;;;;;;;;;;;;;;;-144.99;83.13;52232.03;5096577;28;19946;-74
2021/09/08 06:37:38;;;;;;;;;;;;;;;-144.99;82.80;52252.44;5087974;28;19935;-74
2021/09/08 06:40:05;;;;;;;;;;;;;;;-144.99;82.59;52240.19;5090608;28;19975;-76
2021/09/08 06:42:31;;;;;;;;;;;;;;;-144.99;82.21;52264.66;5096930;28;19959;-75
2021/09/08 06:44:58;;;;;;;;;;;;;;;-144.99;81.63;52195.34;5097645;28;20463;-74
2021/09/08 06:47:24;;;;;;;;;;;;;;;-144.99;81.19;52219.81;5079294;28;19987;-75
2021/09/08 06:49:52;;;;;;;;;;;;;;;-144.99;81.09;52221.84;5091254;28;19961;-75
2021/09/08 06:52:20;;;;;;;;;;;;;;;-144.99;80.73;52238.16;5091150;28;19965;-77
2021/09/08 06:54:46;;;;;;;;;;;;;;;-144.99;80.38;52203.50;5094571;28;20308;-76
2021/09/08 06:57:13;;;;;;;;;;;;;;;-144.99;79.78;52201.47;5082377;28;19951;-78
2021/09/08 06:59:40;;;;;;;;;;;;;;;-144.99;79.67;52223.88;5093199;28;19952;-75
2021/09/08 07:02:07;;;;;;;;;;;;;;;-144.99;78.95;52219.81;5089432;28;19970;-78
2021/09/08 07:04:33;;;;;;;;;;;;;;;-144.99;78.65;52201.47;5087768;28;20001;-78
2021/09/08 07:07:00;;;;;;;;;;;;;;;-144.99;78.34;52215.75;5083425;28;20604;-77
2021/09/08 07:09:27;;;;;;;;;;;;;;;-144.99;77.60;52207.59;5079070;28;20370;-73
2021/09/08 07:11:53;;;;;;;;;;;;;;;-144.99;77.09;52199.44;5087276;28;20290;-74
2021/09/08 07:14:19;;;;;;;;;;;;;;;-144.99;76.93;52183.13;5084146;28;19970;-77
2021/09/08 07:16:46;;;;;;;;;;;;;;;-144.99;76.55;52195.34;5089937;28;19979;-77
2021/09/08 07:19:12;;;;;;;;;;;;;;;-144.99;76.81;52219.81;5094433;28;20165;-77
2021/09/08 07:21:39;;;;;;;;;;;;;;;-144.99;76.34;52179.06;5088423;28;19972;-75
2021/09/08 07:24:06;;;;;;;;;;;;;;;-144.99;75.86;52174.97;5099298;28;19976;-72
2021/09/08 07:26:33;;;;;;;;;;;;;;;-144.99;75.46;52211.66;5090853;28;20254;-74
2021/09/08 07:29:00;;;;;;;;;;;;;;;-144.99;74.64;52211.66;5080300;28;20091;-75
2021/09/08 07:31:29;;;;;;;;;;;;;;;-144.99;73.91;52207.59;5080609;28;19967;-74
2021/09/08 07:33:55;;;;;;;;;;;;;;;-144.99;73.27;52195.34;5089982;28;19990;-75
2021/09/08 07:36:22;;;;;;;;;;;;;;;-144.99;73.11;52215.75;5082694;28;19980;-76
2021/09/08 07:38:49;;;;;;;;;;;;;;;-144.99;73.48;52177.00;5088472;28;20425;-75
2021/09/08 07:41:17;;;;;;;;;;;;;;;-144.99;73.95;52187.19;5089679;28;20061;-78
2021/09/08 07:43:43;;;;;;;;;;;;;;;-144.99;72.84;52177.00;5090924;28;20120;-75
2021/09/08 07:46:11;;;;;;;;;;;;;;;-144.99;73.04;52183.13;5088424;28;19984;-78
2021/09/08 07:48:37;;;;;;;;;;;;;;;-144.99;73.22;52166.81;5091918;28;19973;-75
2021/09/08 07:51:03;;;;;;;;;;;;;;;-144.99;72.90;52183.13;5067562;28;19968;-78
2021/09/08 07:53:30;;;;;;;;;;;;;;;-144.99;73.08;52187.19;5090354;28;20050;-77
2021/09/08 07:55:56;;;;;;;;;;;;;;;-144.99;73.32;52215.75;5084386;28;19984;-78
2021/09/08 07:58:26;;;;;;;;;;;;;;;-144.99;73.14;52187.19;5095501;28;20469;-78
2021/09/08 08:00:52;;;;;;;;;;;;;;;-144.99;73.12;52197.41;5082853;28;19956;-77
2021/09/08 08:03:19;;;;;;;;;;;;;;;-144.99;73.12;52203.50;5093390;28;19931;-78
2021/09/08 08:05:46;;;;;;;;;;;;;;;-144.99;73.18;52207.59;5072444;28;20213;-78
2021/09/08 08:08:12;;;;;;;;;;;;;;;-144.99;73.50;52174.97;5078052;28;20044;-75
2021/09/08 08:10:38;;;;;;;;;;;;;;;-144.99;71.78;52199.44;5084105;28;19970;-76
2021/09/08 08:13:05;;;;;;;;;;;;;;;-144.99;71.87;52174.97;5095754;28;20006;-77
2021/09/08 08:15:32;;;;;;;;;;;;;;;-144.99;71.23;52183.13;5084928;28;20048;-78
2021/09/08 08:17:59;;;;;;;;;;;;;;;-144.99;71.46;52158.66;5087756;28;20001;-76
2021/09/08 08:20:25;;;;;;;;;;;;;;;-144.99;70.98;52221.84;5086778;28;20002;-80
2021/09/08 08:22:52;;;;;;;;;;;;;;;-144.99;71.34;52154.59;5093161;28;20000;-76
2021/09/08 08:25:20;;;;;;;;;;;;;;;-144.99;71.21;52177.00;5084848;28;19974;-76
2021/09/08 08:27:47;;;;;;;;;;;;;;;-144.99;70.17;52146.44;5088953;28;20001;-76
2021/09/08 08:30:14;;;;;;;;;;;;;;;-144.99;69.09;52187.19;5087580;28;19956;-75
2021/09/08 08:32:42;;;;;;;;;;;;;;;-144.99;67.67;52179.06;5076313;28;19976;-76
2021/09/08 08:35:09;;;;;;;;;;;;;;;-144.99;65.96;52146.44;5091330;28;20362;-75
2021/09/08 08:37:36;;;;;;;;;;;;;;;-144.99;65.33;52183.13;5085830;28;20359;-77
2021/09/08 08:40:03;;;;;;;;;;;;;;;-144.99;65.15;52211.66;5087243;28;19964;-78
2021/09/08 08:42:30;;;;;;;;;;;;;;;-144.99;64.51;52162.75;5080680;28;19979;-74
2021/09/08 08:44:57;;;;;;;;;;;;;;;-144.99;63.73;52154.59;5093867;28;19962;-76
2021/09/08 08:47:24;;;;;;;;;;;;;;;-144.99;63.67;52134.22;5090693;28;19949;-78
2021/09/08 08:49:52;;;;;;;;;;;;;;;-144.99;63.01;52138.28;5092265;28;19954;-75
2021/09/08 08:52:19;;;;;;;;;;;;;;;-144.99;62.71;52154.59;5089318;28;19958;-76
2021/09/08 08:54:46;;;;;;;;;;;;;;;-144.99;62.49;52162.75;5091424;28;20436;-76
2021/09/08 08:57:13;;;;;;;;;;;;;;;-144.99;62.11;52142.38;5085027;28;20159;-77
2021/09/08 08:59:41;;;;;;;;;;;;;;;-144.99;60.48;52146.44;5095976;28;19945;-76
2021/09/08 09:02:20;;;;;;;;;;;;;;;-144.99;59.50;52128.09;5087847;28;20499;-77
2021/09/08 09:04:47;;;;;;;;;;;;;;;-144.99;58.86;52179.06;5070320;28;20003;-77
2021/09/08 09:07:26;;;;;;;;;;;;;;;-144.99;56.45;52130.13;5082263;28;20479;-75
2021/09/08 09:09:53;;;;;;;;;;;;;;;-144.99;56.44;52154.59;5081931;28;19942;-76
2021/09/08 09:12:20;;;;;;;;;;;;;;;-144.99;55.50;52109.75;5091721;28;20425;-77
2021/09/08 09:14:48;;;;;;;;;;;;;;;-144.99;54.85;52093.44;5090922;28;19951;-80
2021/09/08 09:17:15;;;;;;;;;;;;;;;-144.99;54.59;52113.84;5099003;28;19939;-78
2021/09/08 09:19:46;;;;;;;;;;;;;;;-144.99;54.36;52121.97;5096099;28;19968;-76
2021/09/08 09:22:12;;;;;;;;;;;;;;;-144.99;53.57;52113.84;5087243;28;20266;-76
2021/09/08 09:24:42;;;;;;;;;;;;;;;-144.99;52.61;52048.63;5081845;28;20040;-71
2021/09/08 09:27:11;;;;;;;;;;;;;;;-144.99;51.63;52121.97;5079076;28;19947;-75
2021/09/08 09:29:44;;;;;;;;;;;;;;;-144.99;51.42;52079.19;5080521;28;19958;-71
2021/09/08 09:32:12;;;;;;;;;;;;;;;-144.99;50.62;52064.91;5075299;28;20383;-72
2021/09/08 09:34:39;;;;;;;;;;;;;;;-144.99;50.44;52069.00;5083884;28;19927;-72
2021/09/08 09:37:06;;;;;;;;;;;;;;;-144.99;49.24;52030.28;5085803;28;19940;-75
2021/09/08 09:39:34;;;;;;;;;;;;;;;-144.99;49.08;52077.16;5107758;28;19972;-78
2021/09/08 09:42:02;;;;;;;;;;;;;;;-144.99;48.59;52032.31;5117137;28;19934;-79
2021/09/08 09:44:31;;;;;;;;;;;;;;;-144.99;48.40;52052.69;5112650;28;20058;-79
2021/09/08 09:46:57;;;;;;;;;;;;;;;-144.99;47.35;52069.00;5116122;28;19912;-80
2021/09/08 09:49:25;;;;;;;;;;;;;;;-144.99;47.08;52044.53;5107561;28;19934;-79
2021/09/08 09:51:54;;;;;;;;;;;;;;;-144.99;45.90;52005.81;5112257;28;19912;-79
2021/09/08 09:54:21;;;;;;;;;;;;;;;-144.99;45.38;52040.47;5110807;28;19950;-78
2021/09/08 09:56:47;;;;;;;;;;;;;;;-144.99;44.05;51991.56;5100170;28;19931;-78
2021/09/08 09:59:15;;;;;;;;;;;;;;;-144.99;43.70;52016.00;5108462;28;19913;-79
2021/09/08 10:01:41;;;;;;;;;;;;;;;-144.99;42.97;52007.84;5111461;28;20206;-77
2021/09/08 10:04:08;;;;;;;;;;;;;;;-144.99;43.27;52032.31;5111905;28;20465;-78
2021/09/08 10:06:35;;;;;;;;;;;;;;;-144.99;43.18;52024.16;5095530;28;19935;-78
2021/09/08 10:09:02;;;;;;;;;;;;;;;-144.99;43.24;52028.22;5095071;28;19973;-80
2021/09/08 10:11:32;;;;;;;;;;;;;;;-144.99;42.55;51995.63;5119049;28;19958;-79
2021/09/08 10:14:03;;;;;;;;;;;;;;;-144.99;41.48;51983.41;5101035;28;20038;-77
2021/09/08 10:16:31;;;;;;;;;;;;;;;-144.99;41.09;52020.09;5112857;28;19912;-79
2021/09/08 10:18:57;;;;;;;;;;;;;;;-144.99;41.39;52003.78;5111949;28;19928;-78
2021/09/08 10:21:24;;;;;;;;;;;;;;;-144.99;40.94;51967.09;5109757;28;19928;-78
2021/09/08 10:23:54;;;;;;;;;;;;;;;-144.99;40.99;51963.03;5110155;28;19946;-77
2021/09/08 10:26:27;;;;;;;;;;;;;;;-144.99;40.39;51926.34;5107775;28;19939;-78
2021/09/08 10:28:54;;;;;;;;;;;;;;;-144.99;39.80;51924.28;5106603;28;19939;-78
2021/09/08 10:31:21;;;;;;;;;;;;;;;-144.99;39.67;51934.50;5102549;28;19933;-79
2021/09/08 10:33:55;;;;;;;;;;;;;;;-144.99;39.46;51952.81;5116641;28;19974;-78
2021/09/08 10:36:22;;;;;;;;;;;;;;;-144.99;39.42;51950.78;5114437;28;20134;-78
2021/09/08 10:39:02;;;;;;;;;;;;;;;-144.99;39.46;51934.50;5116759;28;19924;-78
2021/09/08 10:41:37;;;;;;;;;;;;;;;-144.99;39.37;51897.81;5108212;28;19935;-75
2021/09/08 10:44:03;;;;;;;;;;;;;;;-144.99;39.00;51926.34;5101303;28;19973;-79
2021/09/08 10:46:47;;;;;;;;;;;;;;;-144.99;38.25;51855.00;5118070;28;19919;-81
2021/09/08 10:49:28;;;;;;;;;;;;;;;-144.99;38.65;51861.13;5106768;28;20268;-78
2021/09/08 10:51:56;;;;;;;;;;;;;;;-144.99;38.19;51844.81;5112711;28;19927;-80
2021/09/08 10:54:23;;;;;;;;;;;;;;;-144.99;37.65;51844.81;5111286;28;19928;-77
2021/09/08 10:56:50;;;;;;;;;;;;;;;-144.99;37.31;51820.38;5115864;28;19996;-77
2021/09/08 10:59:16;;;;;;;;;;;;;;;-144.99;36.85;51865.19;5110681;28;19924;-78
2021/09/08 11:01:43;;;;;;;;;;;;;;;-144.99;37.24;51889.66;5114393;28;19928;-80
2021/09/08 11:04:12;;;;;;;;;;;;;;;-144.99;37.04;51922.25;5106073;28;19924;-77
2021/09/08 11:06:40;;;;;;;;;;;;;;;-144.99;37.03;51897.81;5105440;28;19943;-79
2021/09/08 11:09:08;;;;;;;;;;;;;;;-144.99;37.10;51840.75;5099833;28;19925;-76
2021/09/08 11:11:35;;;;;;;;;;;;;;;-144.99;36.50;51808.13;5113341;28;20509;-78
2021/09/08 11:14:01;;;;;;;;;;;;;;;-144.99;35.77;51812.22;5113086;28;19934;-80
2021/09/08 11:16:28;;;;;;;;;;;;;;;-144.99;35.53;51789.78;5112251;28;19923;-78
2021/09/08 11:18:56;;;;;;;;;;;;;;;-144.99;35.03;51799.97;5112960;28;19922;-77
2021/09/08 11:21:23;;;;;;;;;;;;;;;-144.99;34.60;51820.38;5110006;28;19927;-76
2021/09/08 11:23:56;;;;;;;;;;;;;;;-144.99;35.13;51840.75;5115231;28;19919;-78
2021/09/08 11:26:25;;;;;;;;;;;;;;;-144.99;35.22;51799.97;5102809;28;19932;-75
2021/09/08 11:28:57;;;;;;;;;;;;;;;-144.99;34.36;51791.84;5097098;22;19936;-76
2021/09/08 11:31:23;;;;;;;;;;;;;;;-144.99;33.98;51795.91;5064264;28;19924;-75
2021/09/08 11:33:49;;;;;;;;;;;;;;;-144.99;33.42;51779.59;5062490;28;20212;-75
2021/09/08 11:36:17;;;;;;;;;;;;;;;-144.99;33.38;51783.69;5062923;28;19928;-75
2021/09/08 11:38:46;;;;;;;;;;;;;;;-144.99;32.75;51781.63;5062812;28;19932;-76
2021/09/08 11:41:13;;;;;;;;;;;;;;;-144.99;33.42;51791.84;5064162;28;19950;-76
2021/09/08 11:43:42;;;;;;;;;;;;;;;-144.99;33.00;51808.13;5064719;28;19928;-76
2021/09/08 11:46:09;;;;;;;;;;;;;;;-144.99;33.20;51742.91;5067305;28;19933;-76
2021/09/08 11:48:36;;;;;;;;;;;;;;;-144.99;32.83;51759.22;5063999;28;19971;-76
2021/09/08 11:51:03;;;;;;;;;;;;;;;-144.99;33.03;51783.69;5062647;28;20858;-76
2021/09/08 11:53:29;;;;;;;;;;;;;;;-144.99;33.22;51861.13;5063716;28;19929;-75
2021/09/08 11:56:04;;;;;;;;;;;;;;;-144.99;34.07;51857.03;5064537;28;19933;-75
2021/09/08 11:58:30;;;;;;;;;;;;;;;-144.99;34.44;51912.06;5064779;28;19936;-76
2021/09/08 12:00:59;;;;;;;;;;;;;;;-144.99;34.59;51932.44;5063373;28;19932;-75
2021/09/08 12:03:26;;;;;;;;;;;;;;;-144.99;34.59;51930.41;5064213;28;20311;-75
2021/09/08 12:05:53;;;;;;;;;;;;;;;-144.99;34.50;51910.03;5056291;28;19928;-76
2021/09/08 12:08:20;;;;;;;;;;;;;;;-144.99;34.77;51869.28;5063177;28;19981;-76
2021/09/08 12:10:46;;;;;;;;;;;;;;;-144.99;34.67;51881.50;5063097;28;20426;-76
2021/09/08 12:13:26;;;;;;;;;;;;;;;-144.99;35.77;51997.66;5064281;28;19954;-76
2021/09/08 12:15:52;;;;;;;;;;;;;;;-144.99;36.02;51918.19;5057549;28;19932;-75
2021/09/08 12:18:19;;;;;;;;;;;;;;;-144.99;35.47;51885.56;5063560;28;19925;-75
2021/09/08 12:20:46;;;;;;;;;;;;;;;-144.99;35.33;51885.56;5063349;28;19935;-78
2021/09/08 12:23:26;;;;;;;;;;;;;;;-144.99;34.76;51828.50;5062304;28;19974;-77
2021/09/08 12:26:02;;;;;;;;;;;;;;;-144.99;34.70;51836.66;5064359;28;19982;-75